ENY4102 KDFW-KCLL
Flight info
| Callsign | ENY4102 |
|---|---|
| Flight time | 0h 32m |
| Altitude | 13000 |
| Route | ARDIA7 CLL |
| Aircraft | E75L/M-VGDW/C |
Departure
| Time | 2026-05-05 20:25 |
|---|---|
| Airport | Dallas Fort Worth International Airport (KDFW) |
Arrival
| Time | 2026-05-05 20:58 |
|---|---|
| Airport | Easterwood Field (KCLL) |
| Time | Latitude | Longitude | Altitude | Speed | Heading |
|---|---|---|---|---|---|
| 2026-05-05 20:05 | 32.90764 | -97.04296 | 594 ft | 0 kts | 166° |
| 2026-05-05 20:09 | 32.90765 | -97.04296 | 594 ft | 0 kts | 166° |
| 2026-05-05 20:13 | 32.90765 | -97.04297 | 594 ft | 0 kts | 166° |
| 2026-05-05 20:15 | 32.90779 | -97.04301 | 594 ft | 4 kts | 166° |
| 2026-05-05 20:16 | 32.90801 | -97.04307 | 594 ft | 4 kts | 174° |
| 2026-05-05 20:16 | 32.90815 | -97.04295 | 594 ft | 3 kts | 261° |
| 2026-05-05 20:16 | 32.90819 | -97.04269 | 594 ft | 1 kts | 261° |
| 2026-05-05 20:17 | 32.90819 | -97.04268 | 594 ft | 0 kts | 261° |
| 2026-05-05 20:18 | 32.90819 | -97.04269 | 594 ft | 0 kts | 261° |
| 2026-05-05 20:19 | 32.90816 | -97.04287 | 594 ft | 4 kts | 261° |
| 2026-05-05 20:19 | 32.90810 | -97.04332 | 594 ft | 7 kts | 260° |
| 2026-05-05 20:19 | 32.90794 | -97.04398 | 594 ft | 9 kts | 248° |
| 2026-05-05 20:19 | 32.90792 | -97.04477 | 594 ft | 11 kts | 287° |
| 2026-05-05 20:20 | 32.90802 | -97.04557 | 594 ft | 9 kts | 284° |
| 2026-05-05 20:20 | 32.90854 | -97.04594 | 594 ft | 11 kts | 360° |
| 2026-05-05 20:20 | 32.90935 | -97.04591 | 596 ft | 12 kts | 0° |
| 2026-05-05 20:20 | 32.91004 | -97.04570 | 597 ft | 10 kts | 66° |
| 2026-05-05 20:21 | 32.91009 | -97.04458 | 598 ft | 16 kts | 88° |
| 2026-05-05 20:21 | 32.91010 | -97.04320 | 607 ft | 18 kts | 90° |
| 2026-05-05 20:21 | 32.91010 | -97.04171 | 607 ft | 19 kts | 90° |
| 2026-05-05 20:21 | 32.91009 | -97.04004 | 613 ft | 21 kts | 90° |
| 2026-05-05 20:22 | 32.91008 | -97.03841 | 605 ft | 19 kts | 90° |
| 2026-05-05 20:22 | 32.91007 | -97.03656 | 588 ft | 20 kts | 90° |
| 2026-05-05 20:22 | 32.91006 | -97.03503 | 581 ft | 17 kts | 93° |
| 2026-05-05 20:22 | 32.91007 | -97.03373 | 580 ft | 17 kts | 89° |
| 2026-05-05 20:23 | 32.91007 | -97.03239 | 577 ft | 11 kts | 89° |
| 2026-05-05 20:23 | 32.91040 | -97.03186 | 577 ft | 9 kts | 4° |
| 2026-05-05 20:23 | 32.91113 | -97.03187 | 578 ft | 12 kts | 0° |
| 2026-05-05 20:23 | 32.91202 | -97.03185 | 578 ft | 13 kts | 1° |
| 2026-05-05 20:24 | 32.91301 | -97.03186 | 578 ft | 16 kts | 359° |
| 2026-05-05 20:24 | 32.91387 | -97.03184 | 576 ft | 10 kts | 16° |
| 2026-05-05 20:24 | 32.91414 | -97.03103 | 576 ft | 12 kts | 89° |
| 2026-05-05 20:24 | 32.91412 | -97.03015 | 575 ft | 9 kts | 103° |
| 2026-05-05 20:25 | 32.91360 | -97.02986 | 576 ft | 9 kts | 184° |
| 2026-05-05 20:25 | 32.91186 | -97.02992 | 578 ft | 61 kts | 180° |
| 2026-05-05 20:25 | 32.90469 | -97.02993 | 581 ft | 142 kts | 181° |
| 2026-05-05 20:25 | 32.89380 | -97.02959 | 1356 ft | 163 kts | 184° |
| 2026-05-05 20:26 | 32.88239 | -97.02935 | 2467 ft | 170 kts | 186° |
| 2026-05-05 20:26 | 32.87007 | -97.02962 | 3420 ft | 185 kts | 184° |
| 2026-05-05 20:26 | 32.85677 | -97.02987 | 4371 ft | 199 kts | 185° |
| 2026-05-05 20:26 | 32.84216 | -97.02998 | 5287 ft | 220 kts | 185° |
| 2026-05-05 20:27 | 32.82574 | -97.03005 | 6234 ft | 249 kts | 185° |
| 2026-05-05 20:27 | 32.80783 | -97.03008 | 7412 ft | 263 kts | 185° |
| 2026-05-05 20:27 | 32.78955 | -97.03008 | 8853 ft | 268 kts | 185° |
| 2026-05-05 20:27 | 32.77084 | -97.03006 | 10306 ft | 269 kts | 186° |
| 2026-05-05 20:28 | 32.75209 | -97.03005 | 11693 ft | 269 kts | 187° |
| 2026-05-05 20:28 | 32.73293 | -97.03011 | 12716 ft | 287 kts | 188° |
| 2026-05-05 20:28 | 32.71217 | -97.03015 | 12855 ft | 302 kts | 185° |
| 2026-05-05 20:28 | 32.69177 | -97.02430 | 12983 ft | 308 kts | 163° |
| 2026-05-05 20:29 | 32.67167 | -97.01289 | 13347 ft | 334 kts | 163° |
| 2026-05-05 20:29 | 32.64991 | -97.00141 | 13321 ft | 347 kts | 163° |
| 2026-05-05 20:29 | 32.63480 | -96.99346 | 13262 ft | 355 kts | 163° |
| 2026-05-05 20:29 | 32.61196 | -96.98156 | 13184 ft | 361 kts | 163° |
| 2026-05-05 20:30 | 32.58841 | -96.97204 | 13089 ft | 353 kts | 178° |
| 2026-05-05 20:30 | 32.56385 | -96.97027 | 13041 ft | 354 kts | 184° |
| 2026-05-05 20:30 | 32.53953 | -96.96817 | 13004 ft | 355 kts | 182° |
| 2026-05-05 20:30 | 32.51490 | -96.96569 | 13001 ft | 355 kts | 181° |
| 2026-05-05 20:31 | 32.49028 | -96.96302 | 13026 ft | 355 kts | 181° |
| 2026-05-05 20:31 | 32.46572 | -96.96017 | 13035 ft | 355 kts | 181° |
| 2026-05-05 20:31 | 32.44116 | -96.95723 | 13038 ft | 354 kts | 181° |
| 2026-05-05 20:31 | 32.41656 | -96.95425 | 13049 ft | 355 kts | 181° |
| 2026-05-05 20:32 | 32.39186 | -96.95120 | 13037 ft | 357 kts | 180° |
| 2026-05-05 20:32 | 32.36716 | -96.94811 | 13038 ft | 357 kts | 180° |
| 2026-05-05 20:32 | 32.34243 | -96.94501 | 13017 ft | 357 kts | 180° |
| 2026-05-05 20:32 | 32.31773 | -96.94189 | 13026 ft | 357 kts | 180° |
| 2026-05-05 20:33 | 32.29303 | -96.93876 | 13024 ft | 357 kts | 180° |
| 2026-05-05 20:33 | 32.26837 | -96.93538 | 13029 ft | 358 kts | 178° |
| 2026-05-05 20:33 | 32.24361 | -96.93085 | 13025 ft | 360 kts | 178° |
| 2026-05-05 20:33 | 32.21892 | -96.92643 | 13031 ft | 358 kts | 178° |
| 2026-05-05 20:34 | 32.19420 | -96.92208 | 13028 ft | 358 kts | 178° |
| 2026-05-05 20:34 | 32.16950 | -96.91772 | 13042 ft | 361 kts | 178° |
| 2026-05-05 20:34 | 32.14476 | -96.91337 | 13022 ft | 358 kts | 178° |
| 2026-05-05 20:34 | 32.11985 | -96.90905 | 13041 ft | 363 kts | 178° |
| 2026-05-05 20:35 | 32.09531 | -96.90475 | 13015 ft | 360 kts | 178° |
| 2026-05-05 20:35 | 32.07045 | -96.90044 | 13007 ft | 360 kts | 178° |
| 2026-05-05 20:35 | 32.04565 | -96.89611 | 13026 ft | 360 kts | 178° |
| 2026-05-05 20:35 | 32.02089 | -96.89182 | 13034 ft | 360 kts | 178° |
| 2026-05-05 20:36 | 31.99607 | -96.88750 | 13037 ft | 360 kts | 178° |
| 2026-05-05 20:36 | 31.97131 | -96.88321 | 13040 ft | 360 kts | 178° |
| 2026-05-05 20:36 | 31.94654 | -96.87892 | 13035 ft | 360 kts | 178° |
| 2026-05-05 20:36 | 31.92155 | -96.87462 | 13062 ft | 364 kts | 178° |
| 2026-05-05 20:37 | 31.89648 | -96.87026 | 13042 ft | 367 kts | 178° |
| 2026-05-05 20:37 | 31.87118 | -96.86590 | 13125 ft | 368 kts | 178° |
| 2026-05-05 20:37 | 31.84565 | -96.86150 | 13042 ft | 372 kts | 178° |
| 2026-05-05 20:37 | 31.81982 | -96.85703 | 12961 ft | 373 kts | 178° |
| 2026-05-05 20:38 | 31.79441 | -96.85260 | 12914 ft | 367 kts | 178° |
| 2026-05-05 20:38 | 31.76929 | -96.84827 | 12951 ft | 363 kts | 178° |
| 2026-05-05 20:38 | 31.74426 | -96.84393 | 13041 ft | 363 kts | 178° |
| 2026-05-05 20:38 | 31.71905 | -96.83957 | 12989 ft | 366 kts | 176° |
| 2026-05-05 20:39 | 31.69480 | -96.82984 | 12914 ft | 372 kts | 162° |
| 2026-05-05 20:39 | 31.67141 | -96.81772 | 12564 ft | 369 kts | 163° |
| 2026-05-05 20:39 | 31.64797 | -96.80617 | 11942 ft | 361 kts | 163° |
| 2026-05-05 20:39 | 31.62513 | -96.79503 | 11419 ft | 351 kts | 163° |
| 2026-05-05 20:40 | 31.60284 | -96.78432 | 10905 ft | 341 kts | 163° |
| 2026-05-05 20:40 | 31.58133 | -96.77392 | 10410 ft | 329 kts | 161° |
| 2026-05-05 20:40 | 31.56122 | -96.76202 | 10107 ft | 315 kts | 158° |
| 2026-05-05 20:40 | 31.54249 | -96.75026 | 9963 ft | 297 kts | 158° |
| 2026-05-05 20:41 | 31.52464 | -96.73895 | 9847 ft | 289 kts | 158° |
| 2026-05-05 20:41 | 31.50700 | -96.72773 | 9746 ft | 288 kts | 158° |
| 2026-05-05 20:41 | 31.48931 | -96.71661 | 9626 ft | 289 kts | 157° |
| 2026-05-05 20:41 | 31.47156 | -96.70548 | 9487 ft | 289 kts | 158° |
| 2026-05-05 20:42 | 31.45382 | -96.69437 | 9312 ft | 288 kts | 158° |
| 2026-05-05 20:42 | 31.43611 | -96.68330 | 9142 ft | 288 kts | 158° |
| 2026-05-05 20:42 | 31.41844 | -96.67228 | 8904 ft | 289 kts | 157° |
| 2026-05-05 20:42 | 31.40086 | -96.66136 | 8650 ft | 283 kts | 157° |
| 2026-05-05 20:43 | 31.38365 | -96.65073 | 8399 ft | 277 kts | 158° |
| 2026-05-05 20:43 | 31.36671 | -96.64024 | 8147 ft | 274 kts | 158° |
| 2026-05-05 20:43 | 31.34985 | -96.62987 | 7905 ft | 273 kts | 157° |
| 2026-05-05 20:43 | 31.33300 | -96.61957 | 7669 ft | 273 kts | 157° |
| 2026-05-05 20:44 | 31.31608 | -96.60937 | 7434 ft | 274 kts | 158° |
| 2026-05-05 20:44 | 31.29915 | -96.59921 | 7200 ft | 273 kts | 157° |
| 2026-05-05 20:44 | 31.28223 | -96.58905 | 6990 ft | 273 kts | 158° |
| 2026-05-05 20:44 | 31.26512 | -96.57951 | 6780 ft | 271 kts | 162° |
| 2026-05-05 20:45 | 31.23011 | -96.56384 | 6362 ft | 270 kts | 165° |
| 2026-05-05 20:45 | 31.21233 | -96.55663 | 6138 ft | 270 kts | 166° |
| 2026-05-05 20:45 | 31.19454 | -96.54971 | 5872 ft | 267 kts | 167° |
| 2026-05-05 20:46 | 31.17732 | -96.54320 | 5620 ft | 261 kts | 167° |
| 2026-05-05 20:46 | 31.15993 | -96.53677 | 5368 ft | 256 kts | 167° |
| 2026-05-05 20:46 | 31.14330 | -96.53070 | 5134 ft | 251 kts | 167° |
| 2026-05-05 20:46 | 31.12679 | -96.52473 | 4926 ft | 246 kts | 168° |
| 2026-05-05 20:47 | 31.11052 | -96.51889 | 4697 ft | 243 kts | 168° |
| 2026-05-05 20:47 | 31.09443 | -96.51318 | 4446 ft | 240 kts | 168° |
| 2026-05-05 20:47 | 31.07887 | -96.50769 | 4413 ft | 228 kts | 168° |
| 2026-05-05 20:47 | 31.06393 | -96.50263 | 4378 ft | 224 kts | 167° |
| 2026-05-05 20:48 | 31.04904 | -96.49731 | 4281 ft | 223 kts | 166° |
| 2026-05-05 20:48 | 31.03437 | -96.49199 | 4186 ft | 218 kts | 166° |
| 2026-05-05 20:48 | 31.02002 | -96.48685 | 4113 ft | 215 kts | 167° |
| 2026-05-05 20:48 | 31.00575 | -96.48185 | 4032 ft | 213 kts | 166° |
| 2026-05-05 20:49 | 30.99159 | -96.47690 | 3958 ft | 211 kts | 166° |
| 2026-05-05 20:49 | 30.97766 | -96.47198 | 3849 ft | 209 kts | 167° |
| 2026-05-05 20:49 | 30.96377 | -96.46707 | 3758 ft | 209 kts | 167° |
| 2026-05-05 20:49 | 30.94991 | -96.46222 | 3661 ft | 208 kts | 166° |
| 2026-05-05 20:50 | 30.93600 | -96.45734 | 3585 ft | 209 kts | 166° |
| 2026-05-05 20:50 | 30.92209 | -96.45247 | 3491 ft | 208 kts | 166° |
| 2026-05-05 20:50 | 30.90833 | -96.44788 | 3407 ft | 208 kts | 166° |
| 2026-05-05 20:50 | 30.89431 | -96.44288 | 3315 ft | 206 kts | 167° |
| 2026-05-05 20:51 | 30.88057 | -96.43801 | 3216 ft | 206 kts | 166° |
| 2026-05-05 20:51 | 30.86697 | -96.43321 | 3126 ft | 208 kts | 166° |
| 2026-05-05 20:51 | 30.85307 | -96.42832 | 3091 ft | 207 kts | 166° |
| 2026-05-05 20:51 | 30.83919 | -96.42345 | 3011 ft | 210 kts | 166° |
| 2026-05-05 20:52 | 30.82540 | -96.41861 | 3013 ft | 204 kts | 166° |
| 2026-05-05 20:52 | 30.81201 | -96.41392 | 3002 ft | 196 kts | 166° |
| 2026-05-05 20:52 | 30.79919 | -96.40940 | 2992 ft | 190 kts | 167° |
| 2026-05-05 20:52 | 30.78660 | -96.40587 | 2986 ft | 181 kts | 173° |
| 2026-05-05 20:53 | 30.77427 | -96.40330 | 3036 ft | 181 kts | 171° |
| 2026-05-05 20:53 | 30.76164 | -96.40050 | 2810 ft | 186 kts | 171° |
| 2026-05-05 20:53 | 30.74925 | -96.39766 | 2838 ft | 177 kts | 172° |
| 2026-05-05 20:53 | 30.73759 | -96.39500 | 2817 ft | 166 kts | 172° |
| 2026-05-05 20:54 | 30.72646 | -96.39243 | 2742 ft | 161 kts | 172° |
| 2026-05-05 20:54 | 30.71533 | -96.38987 | 2529 ft | 163 kts | 172° |
| 2026-05-05 20:54 | 30.70438 | -96.38732 | 2317 ft | 159 kts | 172° |
| 2026-05-05 20:54 | 30.69373 | -96.38487 | 2095 ft | 151 kts | 172° |
| 2026-05-05 20:55 | 30.68374 | -96.38255 | 1914 ft | 141 kts | 172° |
| 2026-05-05 20:55 | 30.67435 | -96.38040 | 1745 ft | 135 kts | 173° |
| 2026-05-05 20:55 | 30.66534 | -96.37834 | 1638 ft | 130 kts | 174° |
| 2026-05-05 20:55 | 30.65610 | -96.37632 | 1490 ft | 138 kts | 172° |
| 2026-05-05 20:56 | 30.64659 | -96.37428 | 1354 ft | 141 kts | 171° |
| 2026-05-05 20:56 | 30.63707 | -96.37192 | 1208 ft | 136 kts | 172° |
| 2026-05-05 20:56 | 30.62795 | -96.36969 | 1048 ft | 132 kts | 175° |
| 2026-05-05 20:56 | 30.61879 | -96.36779 | 831 ft | 135 kts | 174° |
| 2026-05-05 20:57 | 30.60955 | -96.36578 | 681 ft | 138 kts | 171° |
| 2026-05-05 20:57 | 30.60014 | -96.36360 | 427 ft | 137 kts | 171° |
| 2026-05-05 20:57 | 30.59123 | -96.36162 | 323 ft | 118 kts | 169° |
| 2026-05-05 20:57 | 30.58508 | -96.36022 | 318 ft | 57 kts | 169° |
| 2026-05-05 20:58 | 30.58301 | -96.35976 | 319 ft | 9 kts | 185° |
| 2026-05-05 20:58 | 30.58272 | -96.36031 | 318 ft | 8 kts | 258° |
| 2026-05-05 20:58 | 30.58267 | -96.36084 | 318 ft | 6 kts | 287° |
| 2026-05-05 20:58 | 30.58287 | -96.36103 | 317 ft | 1 kts | 348° |
| 2026-05-05 20:59 | 30.58295 | -96.36104 | 318 ft | 2 kts | 352° |
| 2026-05-05 20:59 | 30.58296 | -96.36104 | 318 ft | 0 kts | 351° |
| 2026-05-05 20:59 | 30.58307 | -96.36106 | 316 ft | 6 kts | 350° |
| 2026-05-05 20:59 | 30.58367 | -96.36120 | 318 ft | 11 kts | 348° |
| 2026-05-05 21:00 | 30.58450 | -96.36140 | 318 ft | 14 kts | 349° |
| 2026-05-05 21:00 | 30.58551 | -96.36162 | 319 ft | 16 kts | 349° |
| 2026-05-05 21:00 | 30.58671 | -96.36188 | 319 ft | 19 kts | 348° |
| 2026-05-05 21:00 | 30.58805 | -96.36219 | 321 ft | 19 kts | 348° |
| 2026-05-05 21:01 | 30.58937 | -96.36250 | 321 ft | 18 kts | 348° |
| 2026-05-05 21:01 | 30.59059 | -96.36298 | 322 ft | 18 kts | 328° |
| 2026-05-05 21:01 | 30.59147 | -96.36381 | 323 ft | 15 kts | 319° |
| 2026-05-05 21:01 | 30.59220 | -96.36454 | 323 ft | 13 kts | 319° |
| 2026-05-05 21:02 | 30.59283 | -96.36518 | 321 ft | 7 kts | 306° |
| 2026-05-05 21:02 | 30.59296 | -96.36564 | 322 ft | 5 kts | 313° |
| 2026-05-05 21:02 | 30.59319 | -96.36585 | 322 ft | 4 kts | 321° |
| 2026-05-05 21:02 | 30.59331 | -96.36596 | 322 ft | 0 kts | 322° |